sensor_id;sensor_type;location;lat;lon;timestamp;P1;durP1;ratioP1;P2;durP2;ratioP2
8331;SDS011;4203;48.144;14.118;2022-07-29T00:01:47;7.80;;;7.20;;
8331;SDS011;4203;48.144;14.118;2022-07-29T00:04:17;8.23;;;7.57;;
8331;SDS011;4203;48.144;14.118;2022-07-29T00:06:46;8.40;;;7.75;;
8331;SDS011;4203;48.144;14.118;2022-07-29T00:09:13;8.40;;;7.60;;
8331;SDS011;4203;48.144;14.118;2022-07-29T00:11:40;7.32;;;6.63;;
8331;SDS011;4203;48.144;14.118;2022-07-29T00:14:08;7.05;;;6.53;;
8331;SDS011;4203;48.144;14.118;2022-07-29T00:16:36;6.78;;;6.22;;
8331;SDS011;4203;48.144;14.118;2022-07-29T00:19:04;7.25;;;6.55;;
8331;SDS011;4203;48.144;14.118;2022-07-29T00:21:31;7.43;;;6.82;;
8331;SDS011;4203;48.144;14.118;2022-07-29T00:24:00;7.68;;;7.07;;
8331;SDS011;4203;48.144;14.118;2022-07-29T00:26:27;7.65;;;7.05;;
8331;SDS011;4203;48.144;14.118;2022-07-29T00:28:57;8.00;;;7.32;;
8331;SDS011;4203;48.144;14.118;2022-07-29T00:31:24;8.60;;;7.75;;
8331;SDS011;4203;48.144;14.118;2022-07-29T00:33:52;8.45;;;7.75;;
8331;SDS011;4203;48.144;14.118;2022-07-29T00:36:19;8.43;;;7.72;;
8331;SDS011;4203;48.144;14.118;2022-07-29T00:38:46;7.57;;;7.05;;
8331;SDS011;4203;48.144;14.118;2022-07-29T00:41:14;8.73;;;8.02;;
8331;SDS011;4203;48.144;14.118;2022-07-29T00:43:42;7.93;;;7.25;;
8331;SDS011;4203;48.144;14.118;2022-07-29T00:46:09;8.32;;;7.63;;
8331;SDS011;4203;48.144;14.118;2022-07-29T00:48:37;8.68;;;7.78;;
8331;SDS011;4203;48.144;14.118;2022-07-29T00:51:05;8.88;;;7.40;;
8331;SDS011;4203;48.144;14.118;2022-07-29T00:53:35;8.05;;;7.25;;
8331;SDS011;4203;48.144;14.118;2022-07-29T00:56:02;9.15;;;8.18;;
8331;SDS011;4203;48.144;14.118;2022-07-29T00:58:32;8.63;;;7.93;;
8331;SDS011;4203;48.144;14.118;2022-07-29T01:00:59;8.57;;;7.78;;
8331;SDS011;4203;48.144;14.118;2022-07-29T01:03:26;8.80;;;7.43;;
8331;SDS011;4203;48.144;14.118;2022-07-29T01:05:53;8.68;;;7.75;;
8331;SDS011;4203;48.144;14.118;2022-07-29T01:08:21;14.70;;;8.23;;
8331;SDS011;4203;48.144;14.118;2022-07-29T01:10:50;7.85;;;7.22;;
8331;SDS011;4203;48.144;14.118;2022-07-29T01:13:19;8.27;;;7.57;;
8331;SDS011;4203;48.144;14.118;2022-07-29T01:15:49;9.98;;;8.57;;
8331;SDS011;4203;48.144;14.118;2022-07-29T01:18:28;8.45;;;7.78;;
8331;SDS011;4203;48.144;14.118;2022-07-29T01:21:07;7.82;;;7.13;;
8331;SDS011;4203;48.144;14.118;2022-07-29T01:24:07;8.98;;;7.78;;
8331;SDS011;4203;48.144;14.118;2022-07-29T01:26:45;8.25;;;7.55;;
8331;SDS011;4203;48.144;14.118;2022-07-29T01:29:18;8.10;;;7.30;;
8331;SDS011;4203;48.144;14.118;2022-07-29T01:31:55;8.55;;;7.72;;
8331;SDS011;4203;48.144;14.118;2022-07-29T01:34:27;8.02;;;7.40;;
8331;SDS011;4203;48.144;14.118;2022-07-29T01:37:04;8.10;;;7.38;;
8331;SDS011;4203;48.144;14.118;2022-07-29T01:39:38;8.23;;;7.53;;
8331;SDS011;4203;48.144;14.118;2022-07-29T01:42:08;8.95;;;7.88;;
8331;SDS011;4203;48.144;14.118;2022-07-29T01:44:48;9.60;;;8.55;;
8331;SDS011;4203;48.144;14.118;2022-07-29T01:47:20;9.10;;;8.20;;
8331;SDS011;4203;48.144;14.118;2022-07-29T01:49:51;9.05;;;8.13;;
8331;SDS011;4203;48.144;14.118;2022-07-29T01:52:35;8.82;;;8.13;;
8331;SDS011;4203;48.144;14.118;2022-07-29T01:55:07;8.43;;;7.78;;
8331;SDS011;4203;48.144;14.118;2022-07-29T01:57:39;8.52;;;7.72;;
8331;SDS011;4203;48.144;14.118;2022-07-29T02:00:12;10.38;;;9.48;;
8331;SDS011;4203;48.144;14.118;2022-07-29T02:02:42;9.30;;;8.45;;
8331;SDS011;4203;48.144;14.118;2022-07-29T02:05:12;9.52;;;8.40;;
8331;SDS011;4203;48.144;14.118;2022-07-29T02:07:42;8.75;;;7.65;;
8331;SDS011;4203;48.144;14.118;2022-07-29T02:10:10;9.23;;;8.32;;
8331;SDS011;4203;48.144;14.118;2022-07-29T02:12:39;9.43;;;8.55;;
8331;SDS011;4203;48.144;14.118;2022-07-29T02:15:08;10.15;;;8.90;;
8331;SDS011;4203;48.144;14.118;2022-07-29T02:17:41;8.85;;;8.15;;
8331;SDS011;4203;48.144;14.118;2022-07-29T02:20:10;8.90;;;8.10;;
8331;SDS011;4203;48.144;14.118;2022-07-29T02:22:39;9.35;;;8.40;;
8331;SDS011;4203;48.144;14.118;2022-07-29T02:25:07;9.35;;;8.65;;
8331;SDS011;4203;48.144;14.118;2022-07-29T02:27:36;10.20;;;9.27;;
8331;SDS011;4203;48.144;14.118;2022-07-29T02:30:06;10.50;;;9.52;;
8331;SDS011;4203;48.144;14.118;2022-07-29T02:32:35;10.02;;;9.10;;
8331;SDS011;4203;48.144;14.118;2022-07-29T02:35:07;13.07;;;9.35;;
8331;SDS011;4203;48.144;14.118;2022-07-29T02:37:36;10.05;;;9.15;;
8331;SDS011;4203;48.144;14.118;2022-07-29T02:40:04;11.20;;;9.35;;
8331;SDS011;4203;48.144;14.118;2022-07-29T02:42:36;9.68;;;8.88;;
8331;SDS011;4203;48.144;14.118;2022-07-29T02:45:06;9.80;;;8.80;;
8331;SDS011;4203;48.144;14.118;2022-07-29T02:47:34;10.93;;;8.57;;
8331;SDS011;4203;48.144;14.118;2022-07-29T02:50:08;9.10;;;8.40;;
8331;SDS011;4203;48.144;14.118;2022-07-29T02:52:40;9.88;;;9.00;;
8331;SDS011;4203;48.144;14.118;2022-07-29T02:55:11;12.43;;;8.93;;
8331;SDS011;4203;48.144;14.118;2022-07-29T02:57:43;9.52;;;8.75;;
8331;SDS011;4203;48.144;14.118;2022-07-29T03:00:14;10.38;;;9.48;;
8331;SDS011;4203;48.144;14.118;2022-07-29T03:02:44;9.80;;;9.07;;
8331;SDS011;4203;48.144;14.118;2022-07-29T03:05:18;11.13;;;10.27;;
8331;SDS011;4203;48.144;14.118;2022-07-29T03:07:55;10.25;;;9.35;;
8331;SDS011;4203;48.144;14.118;2022-07-29T03:10:25;10.95;;;9.98;;
8331;SDS011;4203;48.144;14.118;2022-07-29T03:12:54;10.60;;;9.70;;
8331;SDS011;4203;48.144;14.118;2022-07-29T03:15:22;11.02;;;10.18;;
8331;SDS011;4203;48.144;14.118;2022-07-29T03:17:50;11.35;;;10.23;;
8331;SDS011;4203;48.144;14.118;2022-07-29T03:20:22;10.60;;;9.70;;
8331;SDS011;4203;48.144;14.118;2022-07-29T03:22:51;9.98;;;9.20;;
8331;SDS011;4203;48.144;14.118;2022-07-29T03:25:19;9.40;;;8.57;;
8331;SDS011;4203;48.144;14.118;2022-07-29T03:27:47;10.60;;;9.50;;
8331;SDS011;4203;48.144;14.118;2022-07-29T03:30:14;9.10;;;8.40;;
8331;SDS011;4203;48.144;14.118;2022-07-29T03:32:42;9.45;;;8.75;;
8331;SDS011;4203;48.144;14.118;2022-07-29T03:35:09;10.63;;;9.48;;
8331;SDS011;4203;48.144;14.118;2022-07-29T03:37:38;9.23;;;8.32;;
8331;SDS011;4203;48.144;14.118;2022-07-29T03:40:07;11.05;;;9.98;;
8331;SDS011;4203;48.144;14.118;2022-07-29T03:42:36;10.25;;;9.23;;
8331;SDS011;4203;48.144;14.118;2022-07-29T03:45:07;10.45;;;9.63;;
8331;SDS011;4203;48.144;14.118;2022-07-29T03:47:39;9.50;;;8.70;;
8331;SDS011;4203;48.144;14.118;2022-07-29T03:50:11;10.70;;;9.80;;
8331;SDS011;4203;48.144;14.118;2022-07-29T03:52:42;11.43;;;10.32;;
8331;SDS011;4203;48.144;14.118;2022-07-29T03:55:10;11.15;;;10.05;;
8331;SDS011;4203;48.144;14.118;2022-07-29T03:57:37;11.35;;;10.35;;
8331;SDS011;4203;48.144;14.118;2022-07-29T04:00:06;10.75;;;9.85;;
8331;SDS011;4203;48.144;14.118;2022-07-29T04:02:34;12.50;;;11.27;;
8331;SDS011;4203;48.144;14.118;2022-07-29T04:05:02;10.55;;;9.73;;
8331;SDS011;4203;48.144;14.118;2022-07-29T04:07:30;11.30;;;10.32;;
8331;SDS011;4203;48.144;14.118;2022-07-29T04:09:59;11.30;;;10.30;;
8331;SDS011;4203;48.144;14.118;2022-07-29T04:12:26;10.60;;;9.60;;
8331;SDS011;4203;48.144;14.118;2022-07-29T04:14:53;11.05;;;10.15;;
8331;SDS011;4203;48.144;14.118;2022-07-29T04:17:20;10.50;;;9.60;;
8331;SDS011;4203;48.144;14.118;2022-07-29T04:19:48;10.13;;;9.07;;
8331;SDS011;4203;48.144;14.118;2022-07-29T04:22:15;10.60;;;9.70;;
8331;SDS011;4203;48.144;14.118;2022-07-29T04:24:42;11.65;;;10.50;;
8331;SDS011;4203;48.144;14.118;2022-07-29T04:27:11;10.90;;;9.90;;
8331;SDS011;4203;48.144;14.118;2022-07-29T04:29:38;11.00;;;10.10;;
8331;SDS011;4203;48.144;14.118;2022-07-29T04:32:06;10.07;;;9.07;;
8331;SDS011;4203;48.144;14.118;2022-07-29T04:34:33;10.45;;;9.55;;
8331;SDS011;4203;48.144;14.118;2022-07-29T04:37:00;10.77;;;9.63;;
8331;SDS011;4203;48.144;14.118;2022-07-29T04:39:27;11.07;;;9.35;;
8331;SDS011;4203;48.144;14.118;2022-07-29T04:41:55;10.40;;;9.60;;
8331;SDS011;4203;48.144;14.118;2022-07-29T04:44:23;11.25;;;10.25;;
8331;SDS011;4203;48.144;14.118;2022-07-29T04:46:50;10.05;;;9.25;;
8331;SDS011;4203;48.144;14.118;2022-07-29T04:49:18;11.10;;;10.00;;
8331;SDS011;4203;48.144;14.118;2022-07-29T04:51:45;10.35;;;9.48;;
8331;SDS011;4203;48.144;14.118;2022-07-29T04:54:12;9.98;;;9.18;;
8331;SDS011;4203;48.144;14.118;2022-07-29T04:56:39;10.85;;;9.88;;
8331;SDS011;4203;48.144;14.118;2022-07-29T04:59:06;9.93;;;9.02;;
8331;SDS011;4203;48.144;14.118;2022-07-29T05:01:35;12.80;;;10.77;;
8331;SDS011;4203;48.144;14.118;2022-07-29T05:04:02;13.52;;;11.48;;
8331;SDS011;4203;48.144;14.118;2022-07-29T05:06:30;16.08;;;11.05;;
8331;SDS011;4203;48.144;14.118;2022-07-29T05:08:57;15.50;;;10.60;;
8331;SDS011;4203;48.144;14.118;2022-07-29T05:11:24;18.80;;;11.20;;
8331;SDS011;4203;48.144;14.118;2022-07-29T05:13:51;12.07;;;10.00;;
8331;SDS011;4203;48.144;14.118;2022-07-29T05:16:18;12.32;;;11.23;;
8331;SDS011;4203;48.144;14.118;2022-07-29T05:18:47;12.88;;;10.88;;
8331;SDS011;4203;48.144;14.118;2022-07-29T05:21:14;12.60;;;11.50;;
8331;SDS011;4203;48.144;14.118;2022-07-29T05:23:42;12.00;;;10.88;;
8331;SDS011;4203;48.144;14.118;2022-07-29T05:26:09;12.07;;;10.77;;
8331;SDS011;4203;48.144;14.118;2022-07-29T05:28:37;13.85;;;11.00;;
8331;SDS011;4203;48.144;14.118;2022-07-29T05:31:04;11.90;;;10.70;;
8331;SDS011;4203;48.144;14.118;2022-07-29T05:33:31;18.17;;;11.27;;
8331;SDS011;4203;48.144;14.118;2022-07-29T05:36:00;10.15;;;9.18;;
8331;SDS011;4203;48.144;14.118;2022-07-29T05:38:27;12.50;;;11.30;;
8331;SDS011;4203;48.144;14.118;2022-07-29T05:40:56;11.30;;;10.38;;
8331;SDS011;4203;48.144;14.118;2022-07-29T05:43:24;11.80;;;10.75;;
8331;SDS011;4203;48.144;14.118;2022-07-29T05:45:51;11.55;;;10.45;;
8331;SDS011;4203;48.144;14.118;2022-07-29T05:48:18;11.25;;;10.20;;
8331;SDS011;4203;48.144;14.118;2022-07-29T05:50:46;13.13;;;9.57;;
8331;SDS011;4203;48.144;14.118;2022-07-29T05:53:14;11.45;;;10.20;;
8331;SDS011;4203;48.144;14.118;2022-07-29T05:55:42;11.85;;;10.68;;
8331;SDS011;4203;48.144;14.118;2022-07-29T05:58:09;11.65;;;10.57;;
8331;SDS011;4203;48.144;14.118;2022-07-29T06:00:36;10.75;;;9.73;;
8331;SDS011;4203;48.144;14.118;2022-07-29T06:03:03;10.15;;;9.25;;
8331;SDS011;4203;48.144;14.118;2022-07-29T06:05:30;10.23;;;9.32;;
8331;SDS011;4203;48.144;14.118;2022-07-29T06:07:58;10.10;;;9.30;;
8331;SDS011;4203;48.144;14.118;2022-07-29T06:10:26;10.15;;;9.30;;
8331;SDS011;4203;48.144;14.118;2022-07-29T06:12:53;10.65;;;9.65;;
8331;SDS011;4203;48.144;14.118;2022-07-29T06:15:21;10.18;;;9.38;;
8331;SDS011;4203;48.144;14.118;2022-07-29T06:17:48;10.25;;;9.23;;
8331;SDS011;4203;48.144;14.118;2022-07-29T06:20:16;9.23;;;8.38;;
8331;SDS011;4203;48.144;14.118;2022-07-29T06:22:43;8.80;;;8.00;;
8331;SDS011;4203;48.144;14.118;2022-07-29T06:25:10;9.30;;;8.40;;
8331;SDS011;4203;48.144;14.118;2022-07-29T06:27:39;8.35;;;7.53;;
8331;SDS011;4203;48.144;14.118;2022-07-29T06:30:07;7.80;;;7.05;;
8331;SDS011;4203;48.144;14.118;2022-07-29T06:32:35;7.57;;;6.80;;
8331;SDS011;4203;48.144;14.118;2022-07-29T06:35:02;7.75;;;7.10;;
8331;SDS011;4203;48.144;14.118;2022-07-29T06:37:30;7.55;;;6.85;;
8331;SDS011;4203;48.144;14.118;2022-07-29T06:39:58;7.00;;;6.32;;
8331;SDS011;4203;48.144;14.118;2022-07-29T06:42:42;7.95;;;6.75;;
8331;SDS011;4203;48.144;14.118;2022-07-29T06:45:10;8.18;;;6.13;;
8331;SDS011;4203;48.144;14.118;2022-07-29T06:47:38;6.70;;;6.10;;
8331;SDS011;4203;48.144;14.118;2022-07-29T06:50:05;6.85;;;6.25;;
8331;SDS011;4203;48.144;14.118;2022-07-29T06:52:36;8.35;;;6.60;;
8331;SDS011;4203;48.144;14.118;2022-07-29T06:55:04;7.43;;;6.32;;
8331;SDS011;4203;48.144;14.118;2022-07-29T06:57:31;6.10;;;5.60;;
8331;SDS011;4203;48.144;14.118;2022-07-29T07:00:00;7.28;;;6.57;;
8331;SDS011;4203;48.144;14.118;2022-07-29T07:02:29;6.68;;;6.13;;
8331;SDS011;4203;48.144;14.118;2022-07-29T07:04:57;6.50;;;5.90;;
8331;SDS011;4203;48.144;14.118;2022-07-29T07:07:24;8.70;;;6.60;;
8331;SDS011;4203;48.144;14.118;2022-07-29T07:09:52;6.70;;;6.20;;
8331;SDS011;4203;48.144;14.118;2022-07-29T07:12:19;7.38;;;6.63;;
8331;SDS011;4203;48.144;14.118;2022-07-29T07:14:46;6.97;;;6.47;;
8331;SDS011;4203;48.144;14.118;2022-07-29T07:17:14;8.70;;;7.95;;
8331;SDS011;4203;48.144;14.118;2022-07-29T07:19:42;10.10;;;7.72;;
8331;SDS011;4203;48.144;14.118;2022-07-29T07:22:10;8.77;;;8.07;;
8331;SDS011;4203;48.144;14.118;2022-07-29T07:24:37;8.50;;;7.72;;
8331;SDS011;4203;48.144;14.118;2022-07-29T07:27:04;9.00;;;8.18;;
8331;SDS011;4203;48.144;14.118;2022-07-29T07:29:31;11.20;;;8.30;;
8331;SDS011;4203;48.144;14.118;2022-07-29T07:31:58;10.02;;;9.23;;
8331;SDS011;4203;48.144;14.118;2022-07-29T07:34:27;9.50;;;8.48;;
8331;SDS011;4203;48.144;14.118;2022-07-29T07:36:55;9.30;;;8.25;;
8331;SDS011;4203;48.144;14.118;2022-07-29T07:39:22;9.35;;;8.52;;
8331;SDS011;4203;48.144;14.118;2022-07-29T07:41:51;9.98;;;9.07;;
8331;SDS011;4203;48.144;14.118;2022-07-29T07:44:18;9.98;;;8.60;;
8331;SDS011;4203;48.144;14.118;2022-07-29T07:46:45;7.75;;;7.03;;
8331;SDS011;4203;48.144;14.118;2022-07-29T07:49:13;7.05;;;6.35;;
8331;SDS011;4203;48.144;14.118;2022-07-29T07:51:41;6.93;;;6.22;;
8331;SDS011;4203;48.144;14.118;2022-07-29T07:54:08;6.80;;;6.30;;
8331;SDS011;4203;48.144;14.118;2022-07-29T07:56:36;7.65;;;6.65;;
8331;SDS011;4203;48.144;14.118;2022-07-29T07:59:03;7.72;;;6.45;;
8331;SDS011;4203;48.144;14.118;2022-07-29T08:01:30;6.90;;;6.20;;
8331;SDS011;4203;48.144;14.118;2022-07-29T08:03:57;7.10;;;6.53;;
8331;SDS011;4203;48.144;14.118;2022-07-29T08:06:24;7.13;;;6.28;;
8331;SDS011;4203;48.144;14.118;2022-07-29T08:08:53;7.53;;;6.80;;
8331;SDS011;4203;48.144;14.118;2022-07-29T08:11:20;9.27;;;6.65;;
8331;SDS011;4203;48.144;14.118;2022-07-29T08:13:47;7.30;;;6.60;;
8331;SDS011;4203;48.144;14.118;2022-07-29T08:16:14;6.35;;;5.72;;
8331;SDS011;4203;48.144;14.118;2022-07-29T08:18:42;7.68;;;6.93;;
8331;SDS011;4203;48.144;14.118;2022-07-29T08:21:10;6.60;;;6.07;;
8331;SDS011;4203;48.144;14.118;2022-07-29T08:23:38;6.93;;;6.13;;
8331;SDS011;4203;48.144;14.118;2022-07-29T08:26:12;6.97;;;6.32;;
8331;SDS011;4203;48.144;14.118;2022-07-29T08:28:40;8.18;;;7.50;;
8331;SDS011;4203;48.144;14.118;2022-07-29T08:31:10;7.20;;;6.57;;
8331;SDS011;4203;48.144;14.118;2022-07-29T08:33:38;8.93;;;7.93;;
8331;SDS011;4203;48.144;14.118;2022-07-29T08:36:06;8.63;;;7.90;;
8331;SDS011;4203;48.144;14.118;2022-07-29T08:38:33;7.20;;;6.60;;
8331;SDS011;4203;48.144;14.118;2022-07-29T08:41:01;8.80;;;8.10;;
8331;SDS011;4203;48.144;14.118;2022-07-29T08:43:30;12.30;;;8.65;;
8331;SDS011;4203;48.144;14.118;2022-07-29T08:45:57;10.02;;;9.15;;
8331;SDS011;4203;48.144;14.118;2022-07-29T08:48:24;9.68;;;8.88;;
8331;SDS011;4203;48.144;14.118;2022-07-29T08:50:53;10.32;;;8.73;;
8331;SDS011;4203;48.144;14.118;2022-07-29T08:53:23;9.32;;;8.52;;
8331;SDS011;4203;48.144;14.118;2022-07-29T08:55:53;9.77;;;8.18;;
8331;SDS011;4203;48.144;14.118;2022-07-29T08:58:21;9.23;;;8.32;;
8331;SDS011;4203;48.144;14.118;2022-07-29T09:00:52;11.35;;;8.40;;
8331;SDS011;4203;48.144;14.118;2022-07-29T09:03:22;9.45;;;8.50;;
8331;SDS011;4203;48.144;14.118;2022-07-29T09:05:50;8.88;;;7.97;;
8331;SDS011;4203;48.144;14.118;2022-07-29T09:08:18;9.55;;;8.43;;
8331;SDS011;4203;48.144;14.118;2022-07-29T09:10:46;8.70;;;7.25;;
8331;SDS011;4203;48.144;14.118;2022-07-29T09:13:14;8.38;;;7.57;;
8331;SDS011;4203;48.144;14.118;2022-07-29T09:15:41;9.32;;;8.32;;
8331;SDS011;4203;48.144;14.118;2022-07-29T09:18:10;8.18;;;7.38;;
8331;SDS011;4203;48.144;14.118;2022-07-29T09:20:37;8.55;;;7.65;;
8331;SDS011;4203;48.144;14.118;2022-07-29T09:23:22;8.18;;;7.50;;
8331;SDS011;4203;48.144;14.118;2022-07-29T09:25:49;7.78;;;7.18;;
8331;SDS011;4203;48.144;14.118;2022-07-29T09:28:17;9.73;;;7.10;;
8331;SDS011;4203;48.144;14.118;2022-07-29T09:30:49;8.23;;;7.45;;
8331;SDS011;4203;48.144;14.118;2022-07-29T09:33:19;8.20;;;7.43;;
8331;SDS011;4203;48.144;14.118;2022-07-29T09:35:58;10.38;;;7.68;;
8331;SDS011;4203;48.144;14.118;2022-07-29T09:38:25;9.13;;;8.32;;
8331;SDS011;4203;48.144;14.118;2022-07-29T09:40:55;8.02;;;7.43;;
8331;SDS011;4203;48.144;14.118;2022-07-29T09:43:24;9.15;;;7.70;;
8331;SDS011;4203;48.144;14.118;2022-07-29T09:45:51;7.68;;;6.97;;
8331;SDS011;4203;48.144;14.118;2022-07-29T09:48:20;7.80;;;7.03;;
8331;SDS011;4203;48.144;14.118;2022-07-29T09:50:49;8.35;;;7.55;;
8331;SDS011;4203;48.144;14.118;2022-07-29T09:53:30;10.43;;;7.35;;
8331;SDS011;4203;48.144;14.118;2022-07-29T09:55:58;7.97;;;7.38;;
8331;SDS011;4203;48.144;14.118;2022-07-29T09:58:26;9.43;;;7.28;;
8331;SDS011;4203;48.144;14.118;2022-07-29T10:00:56;7.40;;;6.82;;
8331;SDS011;4203;48.144;14.118;2022-07-29T10:03:25;7.78;;;6.32;;
8331;SDS011;4203;48.144;14.118;2022-07-29T10:06:05;9.50;;;6.10;;
8331;SDS011;4203;48.144;14.118;2022-07-29T10:08:34;6.50;;;6.00;;
8331;SDS011;4203;48.144;14.118;2022-07-29T10:13:47;5.95;;;5.50;;
8331;SDS011;4203;48.144;14.118;2022-07-29T10:16:15;6.35;;;5.45;;
8331;SDS011;4203;48.144;14.118;2022-07-29T10:18:44;6.25;;;5.75;;
8331;SDS011;4203;48.144;14.118;2022-07-29T10:21:12;7.57;;;5.93;;
8331;SDS011;4203;48.144;14.118;2022-07-29T10:23:39;7.43;;;6.75;;
8331;SDS011;4203;48.144;14.118;2022-07-29T10:26:08;6.30;;;5.80;;
8331;SDS011;4203;48.144;14.118;2022-07-29T10:28:37;6.00;;;5.22;;
8331;SDS011;4203;48.144;14.118;2022-07-29T10:31:05;7.22;;;4.80;;
8331;SDS011;4203;48.144;14.118;2022-07-29T10:33:41;4.60;;;3.95;;
8331;SDS011;4203;48.144;14.118;2022-07-29T10:36:26;3.42;;;3.13;;
8331;SDS011;4203;48.144;14.118;2022-07-29T10:39:10;4.50;;;3.30;;
8331;SDS011;4203;48.144;14.118;2022-07-29T10:41:54;3.97;;;3.67;;
8331;SDS011;4203;48.144;14.118;2022-07-29T10:44:28;3.45;;;3.20;;
8331;SDS011;4203;48.144;14.118;2022-07-29T10:46:56;3.03;;;2.83;;
8331;SDS011;4203;48.144;14.118;2022-07-29T10:49:25;3.40;;;3.17;;
8331;SDS011;4203;48.144;14.118;2022-07-29T10:51:55;3.60;;;3.10;;
8331;SDS011;4203;48.144;14.118;2022-07-29T10:54:40;5.28;;;2.55;;
8331;SDS011;4203;48.144;14.118;2022-07-29T10:57:19;3.00;;;2.75;;
8331;SDS011;4203;48.144;14.118;2022-07-29T10:59:47;5.32;;;2.70;;
8331;SDS011;4203;48.144;14.118;2022-07-29T11:05:10;2.50;;;2.40;;
8331;SDS011;4203;48.144;14.118;2022-07-29T11:07:39;2.70;;;2.60;;
8331;SDS011;4203;48.144;14.118;2022-07-29T11:10:27;2.95;;;2.78;;
8331;SDS011;4203;48.144;14.118;2022-07-29T11:12:54;3.15;;;2.65;;
8331;SDS011;4203;48.144;14.118;2022-07-29T11:15:22;6.20;;;2.70;;
8331;SDS011;4203;48.144;14.118;2022-07-29T11:18:05;2.65;;;2.40;;
8331;SDS011;4203;48.144;14.118;2022-07-29T11:20:35;2.50;;;2.40;;
8331;SDS011;4203;48.144;14.118;2022-07-29T11:23:17;3.58;;;2.13;;
8331;SDS011;4203;48.144;14.118;2022-07-29T11:28:52;2.97;;;2.50;;
8331;SDS011;4203;48.144;14.118;2022-07-29T11:31:33;2.42;;;2.30;;
8331;SDS011;4203;48.144;14.118;2022-07-29T11:34:19;2.53;;;2.40;;
8331;SDS011;4203;48.144;14.118;2022-07-29T11:39:44;2.40;;;2.30;;
8331;SDS011;4203;48.144;14.118;2022-07-29T11:45:09;2.58;;;2.38;;
8331;SDS011;4203;48.144;14.118;2022-07-29T11:47:39;2.50;;;2.30;;
8331;SDS011;4203;48.144;14.118;2022-07-29T11:50:09;2.35;;;2.25;;
8331;SDS011;4203;48.144;14.118;2022-07-29T11:52:40;3.47;;;2.63;;
8331;SDS011;4203;48.144;14.118;2022-07-29T11:55:14;2.30;;;2.20;;
8331;SDS011;4203;48.144;14.118;2022-07-29T11:57:46;2.50;;;2.38;;
8331;SDS011;4203;48.144;14.118;2022-07-29T12:00:21;2.42;;;2.33;;
8331;SDS011;4203;48.144;14.118;2022-07-29T12:02:53;4.93;;;2.63;;
8331;SDS011;4203;48.144;14.118;2022-07-29T12:05:29;2.92;;;2.10;;
8331;SDS011;4203;48.144;14.118;2022-07-29T12:08:09;3.28;;;2.85;;
8331;SDS011;4203;48.144;14.118;2022-07-29T12:10:39;2.63;;;2.30;;
8331;SDS011;4203;48.144;14.118;2022-07-29T12:13:08;2.60;;;2.40;;
8331;SDS011;4203;48.144;14.118;2022-07-29T12:15:35;6.78;;;2.45;;
8331;SDS011;4203;48.144;14.118;2022-07-29T12:18:13;3.83;;;2.75;;
8331;SDS011;4203;48.144;14.118;2022-07-29T12:20:41;4.57;;;2.63;;
8331;SDS011;4203;48.144;14.118;2022-07-29T12:23:10;2.90;;;2.20;;
8331;SDS011;4203;48.144;14.118;2022-07-29T12:25:38;2.72;;;2.53;;
8331;SDS011;4203;48.144;14.118;2022-07-29T12:28:08;2.55;;;2.42;;
8331;SDS011;4203;48.144;14.118;2022-07-29T12:30:40;3.50;;;2.67;;
8331;SDS011;4203;48.144;14.118;2022-07-29T12:33:10;3.00;;;2.72;;
8331;SDS011;4203;48.144;14.118;2022-07-29T12:35:39;2.88;;;2.67;;
8331;SDS011;4203;48.144;14.118;2022-07-29T12:38:09;2.92;;;2.03;;
8331;SDS011;4203;48.144;14.118;2022-07-29T12:40:39;2.40;;;2.30;;
8331;SDS011;4203;48.144;14.118;2022-07-29T12:43:07;2.42;;;2.17;;
8331;SDS011;4203;48.144;14.118;2022-07-29T12:45:36;2.80;;;2.50;;
8331;SDS011;4203;48.144;14.118;2022-07-29T12:48:04;3.22;;;2.00;;
8331;SDS011;4203;48.144;14.118;2022-07-29T12:50:33;2.20;;;2.10;;
8331;SDS011;4203;48.144;14.118;2022-07-29T12:53:12;2.85;;;2.67;;
8331;SDS011;4203;48.144;14.118;2022-07-29T12:55:43;3.35;;;3.05;;
8331;SDS011;4203;48.144;14.118;2022-07-29T12:58:14;2.70;;;2.50;;
8331;SDS011;4203;48.144;14.118;2022-07-29T13:01:00;3.45;;;2.88;;
8331;SDS011;4203;48.144;14.118;2022-07-29T13:03:43;3.45;;;2.90;;
8331;SDS011;4203;48.144;14.118;2022-07-29T13:06:31;3.17;;;2.97;;
8331;SDS011;4203;48.144;14.118;2022-07-29T13:09:11;4.47;;;2.95;;
8331;SDS011;4203;48.144;14.118;2022-07-29T13:11:40;3.53;;;3.22;;
8331;SDS011;4203;48.144;14.118;2022-07-29T13:14:09;3.30;;;2.92;;
8331;SDS011;4203;48.144;14.118;2022-07-29T13:16:59;5.35;;;3.13;;
8331;SDS011;4203;48.144;14.118;2022-07-29T13:19:32;3.13;;;2.83;;
8331;SDS011;4203;48.144;14.118;2022-07-29T13:22:03;4.45;;;3.30;;
8331;SDS011;4203;48.144;14.118;2022-07-29T13:24:32;3.30;;;3.10;;
8331;SDS011;4203;48.144;14.118;2022-07-29T13:27:00;3.42;;;3.17;;
8331;SDS011;4203;48.144;14.118;2022-07-29T13:29:27;3.85;;;3.08;;
8331;SDS011;4203;48.144;14.118;2022-07-29T13:31:54;4.15;;;3.13;;
8331;SDS011;4203;48.144;14.118;2022-07-29T13:34:22;5.53;;;3.20;;
8331;SDS011;4203;48.144;14.118;2022-07-29T13:36:49;3.10;;;2.90;;
8331;SDS011;4203;48.144;14.118;2022-07-29T13:39:17;3.75;;;3.45;;
8331;SDS011;4203;48.144;14.118;2022-07-29T13:41:45;4.30;;;3.28;;
8331;SDS011;4203;48.144;14.118;2022-07-29T13:44:12;3.40;;;3.10;;
8331;SDS011;4203;48.144;14.118;2022-07-29T13:46:40;3.60;;;3.22;;
8331;SDS011;4203;48.144;14.118;2022-07-29T13:49:07;6.18;;;3.50;;
8331;SDS011;4203;48.144;14.118;2022-07-29T13:51:34;4.95;;;2.80;;
8331;SDS011;4203;48.144;14.118;2022-07-29T13:54:01;4.13;;;3.00;;
8331;SDS011;4203;48.144;14.118;2022-07-29T13:56:29;3.05;;;2.75;;
8331;SDS011;4203;48.144;14.118;2022-07-29T13:58:57;3.13;;;2.80;;
8331;SDS011;4203;48.144;14.118;2022-07-29T14:01:25;2.97;;;2.65;;
8331;SDS011;4203;48.144;14.118;2022-07-29T14:03:52;2.60;;;2.50;;
8331;SDS011;4203;48.144;14.118;2022-07-29T14:06:20;4.32;;;2.97;;
8331;SDS011;4203;48.144;14.118;2022-07-29T14:08:47;2.85;;;2.70;;
8331;SDS011;4203;48.144;14.118;2022-07-29T14:11:14;3.00;;;2.70;;
8331;SDS011;4203;48.144;14.118;2022-07-29T14:13:41;3.78;;;2.63;;
8331;SDS011;4203;48.144;14.118;2022-07-29T14:16:10;2.47;;;2.38;;
8331;SDS011;4203;48.144;14.118;2022-07-29T14:18:37;3.47;;;2.85;;
8331;SDS011;4203;48.144;14.118;2022-07-29T14:21:04;9.40;;;3.05;;
8331;SDS011;4203;48.144;14.118;2022-07-29T14:23:32;3.15;;;2.47;;
8331;SDS011;4203;48.144;14.118;2022-07-29T14:25:59;2.47;;;2.30;;
8331;SDS011;4203;48.144;14.118;2022-07-29T14:28:26;2.70;;;2.50;;
8331;SDS011;4203;48.144;14.118;2022-07-29T14:30:53;2.60;;;2.50;;
8331;SDS011;4203;48.144;14.118;2022-07-29T14:33:22;3.50;;;2.80;;
8331;SDS011;4203;48.144;14.118;2022-07-29T14:35:49;2.60;;;2.40;;
8331;SDS011;4203;48.144;14.118;2022-07-29T14:38:17;3.47;;;2.60;;
8331;SDS011;4203;48.144;14.118;2022-07-29T14:40:44;2.72;;;2.53;;
8331;SDS011;4203;48.144;14.118;2022-07-29T14:43:11;2.55;;;2.45;;
8331;SDS011;4203;48.144;14.118;2022-07-29T14:45:39;2.80;;;2.60;;
8331;SDS011;4203;48.144;14.118;2022-07-29T14:48:06;2.65;;;2.45;;
8331;SDS011;4203;48.144;14.118;2022-07-29T14:50:35;4.65;;;2.55;;
8331;SDS011;4203;48.144;14.118;2022-07-29T14:53:02;2.50;;;2.30;;
8331;SDS011;4203;48.144;14.118;2022-07-29T14:55:30;2.35;;;2.20;;
8331;SDS011;4203;48.144;14.118;2022-07-29T14:57:57;3.67;;;2.50;;
8331;SDS011;4203;48.144;14.118;2022-07-29T15:00:25;2.40;;;2.30;;
8331;SDS011;4203;48.144;14.118;2022-07-29T15:02:52;2.40;;;2.30;;
8331;SDS011;4203;48.144;14.118;2022-07-29T15:05:20;2.50;;;2.40;;
8331;SDS011;4203;48.144;14.118;2022-07-29T15:07:48;2.65;;;2.45;;
8331;SDS011;4203;48.144;14.118;2022-07-29T15:10:15;2.25;;;2.15;;
8331;SDS011;4203;48.144;14.118;2022-07-29T15:12:43;2.45;;;2.30;;
8331;SDS011;4203;48.144;14.118;2022-07-29T15:15:10;3.67;;;2.17;;
8331;SDS011;4203;48.144;14.118;2022-07-29T15:17:37;2.42;;;2.30;;
8331;SDS011;4203;48.144;14.118;2022-07-29T15:20:05;4.38;;;2.42;;
8331;SDS011;4203;48.144;14.118;2022-07-29T15:22:32;2.55;;;2.45;;
8331;SDS011;4203;48.144;14.118;2022-07-29T15:25:01;2.83;;;2.67;;